createdAt,value
2022-12-08T01:49:35.474Z,99724.48
2022-12-08T02:07:10.394Z,99715.73
2022-12-08T02:09:41.961Z,99708.98
2022-12-08T02:12:11.741Z,99718.10
2022-12-08T02:14:40.444Z,99719.23
2022-12-08T02:17:33.809Z,99717.60
2022-12-08T02:20:23.179Z,99716.83
2022-12-08T02:23:11.633Z,99719.23
2022-12-08T02:26:37.282Z,99717.93
2022-12-08T02:30:02.348Z,99716.54
2022-12-08T02:32:49.293Z,99722.78
2022-12-08T02:35:49.911Z,99720.73
2022-12-08T02:38:55.765Z,99719.04
2022-12-08T02:41:32.135Z,99719.19
2022-12-08T02:44:30.134Z,99719.27
2022-12-08T02:47:16.505Z,99725.27
2022-12-08T02:49:45.561Z,99727.55
2022-12-08T02:52:14.029Z,99731.63
2022-12-08T02:54:49.619Z,99732.58
2022-12-08T02:57:56.957Z,99734.91
2022-12-08T03:00:30.085Z,99733.06
2022-12-08T03:03:38.422Z,99731.24
2022-12-08T03:06:25.129Z,99738.56
2022-12-08T03:09:12.903Z,99743.83
2022-12-08T03:12:18.001Z,99742.98
2022-12-08T03:14:53.477Z,99744.46
2022-12-08T03:17:26.669Z,99751.00
2022-12-08T03:19:57.467Z,99753.17
2022-12-08T03:22:29.464Z,99754.96
2022-12-08T03:24:58.641Z,99757.92
2022-12-08T03:27:30.425Z,99751.75
2022-12-08T03:30:00.799Z,99763.02
2022-12-08T03:32:48.777Z,99763.88
2022-12-08T03:35:24.302Z,99766.56
2022-12-08T03:37:52.888Z,99761.91
2022-12-08T03:40:21.469Z,99759.63
2022-12-08T03:42:50.185Z,99762.75
2022-12-08T03:45:18.836Z,99765.63
2022-12-08T03:47:47.420Z,99762.27
2022-12-08T03:50:16.515Z,99764.81
2022-12-08T03:52:45.197Z,99769.27
2022-12-08T03:55:13.919Z,99774.95
2022-12-08T03:57:43.095Z,99775.39
2022-12-08T04:00:16.098Z,99774.04
2022-12-08T04:02:44.727Z,99774.98
2022-12-08T04:05:13.445Z,99777.09
2022-12-08T04:07:42.154Z,99772.79
2022-12-08T04:10:11.524Z,99766.30
2022-12-08T04:12:40.110Z,99769.69
2022-12-08T04:15:10.233Z,99763.07
2022-12-08T04:17:38.941Z,99765.40
2022-12-08T04:20:08.075Z,99766.16
2022-12-08T04:22:36.798Z,99751.41
2022-12-08T04:25:06.437Z,99760.70
2022-12-08T04:27:35.096Z,99756.42
2022-12-08T04:30:04.300Z,99752.02
2022-12-08T04:32:32.975Z,99752.05
2022-12-08T04:35:01.313Z,99754.84
2022-12-08T04:37:30.037Z,99754.75
2022-12-08T04:39:58.377Z,99750.80
2022-12-08T04:42:27.001Z,99746.83
2022-12-08T04:44:55.684Z,99746.91
2022-12-08T04:47:24.219Z,99746.42
2022-12-08T04:49:52.702Z,99751.90
2022-12-08T04:52:21.204Z,99751.38
2022-12-08T04:54:50.126Z,99751.21
2022-12-08T04:57:18.704Z,99749.74
2022-12-08T04:59:47.157Z,99753.19
2022-12-08T05:02:15.981Z,99754.58
2022-12-08T05:04:44.490Z,99762.08
2022-12-08T05:07:13.242Z,99761.77
2022-12-08T05:09:41.930Z,99759.64
2022-12-08T05:12:10.911Z,99763.13
2022-12-08T05:14:39.605Z,99757.52
2022-12-08T05:17:09.802Z,99761.19
2022-12-08T05:19:38.644Z,99753.88
2022-12-08T05:22:07.401Z,99756.27
2022-12-08T05:24:36.029Z,99764.48
2022-12-08T05:27:04.536Z,99771.79
2022-12-08T05:29:32.983Z,99774.62
2022-12-08T05:32:01.634Z,99781.73
2022-12-08T05:34:30.380Z,99771.12
2022-12-08T05:36:58.982Z,99787.39
2022-12-08T05:39:27.574Z,99785.51
2022-12-08T05:41:55.998Z,99784.79
2022-12-08T05:44:24.531Z,99792.55
2022-12-08T05:46:53.218Z,99791.83
2022-12-08T05:49:21.666Z,99794.94
2022-12-08T05:51:50.275Z,99798.77
2022-12-08T05:54:18.871Z,99806.33
2022-12-08T05:56:47.501Z,99815.74
2022-12-08T05:59:16.929Z,99812.21
2022-12-08T06:01:45.486Z,99811.39
2022-12-08T06:04:14.036Z,99816.09
2022-12-08T06:06:42.762Z,99809.69
2022-12-08T06:09:12.683Z,99818.20
2022-12-08T06:11:41.239Z,99821.31
2022-12-08T06:14:12.837Z,99820.35
2022-12-08T06:16:41.487Z,99826.41
2022-12-08T06:19:10.250Z,99834.80
2022-12-08T06:21:38.747Z,99832.06
2022-12-08T06:24:07.646Z,99846.71
2022-12-08T06:26:36.476Z,99844.80
2022-12-08T06:29:05.341Z,99850.29
2022-12-08T06:31:33.894Z,99855.52
2022-12-08T06:34:02.795Z,99859.09
2022-12-08T06:36:31.285Z,99860.41
2022-12-08T06:39:00.141Z,99858.02
2022-12-08T06:41:28.979Z,99853.20
2022-12-08T06:43:57.925Z,99863.61
2022-12-08T06:46:26.577Z,99853.44
2022-12-08T06:48:55.216Z,99861.86
2022-12-08T06:51:23.939Z,99861.93
2022-12-08T06:53:52.369Z,99851.79
2022-12-08T06:56:22.613Z,99857.50
2022-12-08T06:58:52.999Z,99856.00
2022-12-08T07:01:22.365Z,99863.48
2022-12-08T07:03:52.454Z,99838.30
2022-12-08T07:06:24.498Z,99859.38
2022-12-08T07:08:53.183Z,99854.30
2022-12-08T07:11:22.693Z,99860.37
2022-12-08T07:13:51.367Z,99870.77
2022-12-08T07:16:19.962Z,99874.70
2022-12-08T07:18:48.499Z,99883.05
2022-12-08T07:21:18.496Z,99884.11
2022-12-08T07:23:54.343Z,99879.67
2022-12-08T07:26:27.164Z,99872.77
2022-12-08T07:28:55.942Z,99878.66
2022-12-08T07:31:26.022Z,99879.44
2022-12-08T07:33:57.086Z,99882.28
2022-12-08T07:36:26.314Z,99883.54
2022-12-08T07:38:55.076Z,99882.52
2022-12-08T07:41:26.212Z,99885.56
2022-12-08T07:43:55.861Z,99884.85
2022-12-08T07:46:26.019Z,99887.61
2022-12-08T07:48:55.756Z,99882.02
2022-12-08T07:51:25.443Z,99890.85
2022-12-08T07:53:55.129Z,99888.11
2022-12-08T07:56:24.771Z,99894.02
2022-12-08T07:58:53.745Z,99886.29
2022-12-08T08:01:30.132Z,99893.77
2022-12-08T08:04:04.875Z,99904.05
2022-12-08T08:06:35.417Z,99899.36
2022-12-08T08:09:04.740Z,99905.93
2022-12-08T08:11:33.356Z,99910.83
2022-12-08T08:14:02.092Z,99911.83
2022-12-08T08:16:36.567Z,99917.13
2022-12-08T08:19:06.768Z,99917.28
2022-12-08T08:21:50.736Z,99909.84
2022-12-08T08:24:20.532Z,99908.72
2022-12-08T08:26:48.945Z,99908.74
2022-12-08T08:29:17.549Z,99912.90
2022-12-08T08:31:46.126Z,99915.42
2022-12-08T08:34:14.606Z,99923.92
2022-12-08T08:36:43.275Z,99914.56
2022-12-08T08:39:13.169Z,99917.20
2022-12-08T08:41:45.198Z,99896.75
2022-12-08T08:44:15.766Z,99917.05
2022-12-08T08:46:44.462Z,99910.92
2022-12-08T08:49:13.295Z,99913.59
2022-12-08T08:51:42.631Z,99907.44
2022-12-08T08:54:11.597Z,99912.36
2022-12-08T08:56:40.437Z,99902.61
2022-12-08T08:59:11.087Z,99906.45
2022-12-08T09:01:39.952Z,99895.73
2022-12-08T09:04:10.579Z,99911.31
2022-12-08T09:06:39.458Z,99900.97
2022-12-08T09:09:08.208Z,99893.85
2022-12-08T09:11:37.146Z,99901.69
2022-12-08T09:14:06.710Z,99899.03
2022-12-08T09:16:41.783Z,99903.45
2022-12-08T09:19:11.031Z,99899.65
2022-12-08T09:21:39.830Z,99905.42
2022-12-08T09:24:16.037Z,99895.95
2022-12-08T09:26:46.040Z,99903.56
2022-12-08T09:29:15.631Z,99890.22
2022-12-08T09:31:44.358Z,99899.70
2022-12-08T09:34:13.110Z,99902.95
2022-12-08T09:36:42.152Z,99904.80
2022-12-08T09:39:10.636Z,99898.55
2022-12-08T09:42:10.076Z,99898.06
2022-12-08T09:45:14.751Z,99885.17
2022-12-08T09:47:59.715Z,99886.73
2022-12-08T09:50:39.342Z,99882.92
2022-12-08T09:53:19.062Z,99883.77
2022-12-08T09:55:54.108Z,99892.09
2022-12-08T09:58:40.282Z,99891.41
2022-12-08T10:01:12.775Z,99893.39
2022-12-08T10:03:43.048Z,99881.54
2022-12-08T10:06:36.236Z,99898.90
2022-12-08T10:09:31.359Z,99894.63
2022-12-08T10:12:08.353Z,99876.30
2022-12-08T10:14:58.877Z,99871.35
2022-12-08T10:17:34.787Z,99887.94
2022-12-08T10:20:10.044Z,99884.24
2022-12-08T10:22:44.491Z,99878.22
2022-12-08T10:25:33.462Z,99864.81
2022-12-08T10:28:02.278Z,99870.27
2022-12-08T10:30:32.034Z,99861.34
2022-12-08T10:33:00.882Z,99865.30
2022-12-08T10:35:59.080Z,99863.71
2022-12-08T10:38:34.368Z,99856.15
2022-12-08T10:41:14.175Z,99861.56
2022-12-08T10:43:55.162Z,99869.15
2022-12-08T10:46:26.514Z,99866.08
2022-12-08T10:49:27.002Z,99869.08
2022-12-08T10:52:00.009Z,99860.12
2022-12-08T10:54:36.816Z,99868.30
2022-12-08T10:57:23.862Z,99867.34
2022-12-08T10:59:56.525Z,99874.59
2022-12-08T11:02:25.278Z,99869.48
2022-12-08T11:05:01.856Z,99875.94
2022-12-08T11:07:30.786Z,99879.09
2022-12-08T11:10:00.362Z,99873.95
2022-12-08T11:12:31.785Z,99867.88
2022-12-08T11:15:03.618Z,99864.04
2022-12-08T11:17:44.479Z,99857.11
2022-12-08T11:20:23.380Z,99857.16
2022-12-08T11:22:59.070Z,99858.05
2022-12-08T11:25:28.918Z,99843.84
2022-12-08T11:28:01.008Z,99843.61
2022-12-08T11:30:51.355Z,99834.38
2022-12-08T11:33:27.074Z,99830.08
2022-12-08T11:36:16.210Z,99813.52
2022-12-08T11:38:49.806Z,99833.69
2022-12-08T11:41:24.441Z,99838.95
2022-12-08T11:44:29.480Z,99837.96
2022-12-08T11:48:08.941Z,99839.09
2022-12-08T11:51:30.233Z,99852.27
2022-12-08T11:54:23.828Z,99844.23
2022-12-08T11:56:57.908Z,99852.69
2022-12-08T11:59:39.763Z,99852.98
2022-12-08T12:02:17.733Z,99841.02
2022-12-08T12:05:11.435Z,99838.41
2022-12-08T12:08:52.632Z,99826.61
2022-12-08T12:12:01.741Z,99832.08
2022-12-08T12:14:41.906Z,99820.73
2022-12-08T12:17:54.947Z,99831.02
2022-12-08T12:20:38.806Z,99827.90
2022-12-08T12:23:38.557Z,99822.24
2022-12-08T12:26:17.488Z,99827.92
2022-12-08T12:29:02.878Z,99836.77
2022-12-08T12:31:42.757Z,99837.07
2022-12-08T12:34:24.374Z,99833.47
2022-12-08T12:36:58.485Z,99828.23
2022-12-08T12:39:31.569Z,99819.17
2022-12-08T12:42:03.682Z,99818.92
2022-12-08T12:44:33.045Z,99820.88
2022-12-08T12:47:05.129Z,99828.11
2022-12-08T12:49:39.582Z,99825.73
2022-12-08T12:52:10.801Z,99817.94
2022-12-08T12:54:43.863Z,99823.17
2022-12-08T12:57:21.509Z,99824.02
2022-12-08T12:59:55.546Z,99827.59
2022-12-08T13:02:36.878Z,99822.27
2022-12-08T13:05:18.849Z,99821.64
2022-12-08T13:08:26.669Z,99816.71
2022-12-08T13:11:07.264Z,99820.46
2022-12-08T13:13:38.285Z,99822.84
2022-12-08T13:16:18.605Z,99816.63
2022-12-08T13:18:52.789Z,99813.86
2022-12-08T13:21:24.418Z,99798.92
2022-12-08T13:24:10.795Z,99812.34
2022-12-08T13:27:11.539Z,99814.31
2022-12-08T13:29:40.782Z,99817.10
2022-12-08T13:32:09.912Z,99805.91
2022-12-08T13:34:51.581Z,99812.69
2022-12-08T13:37:54.483Z,99816.00
2022-12-08T13:40:28.038Z,99813.23
2022-12-08T13:43:19.060Z,99810.23
2022-12-08T13:46:52.305Z,99804.13
2022-12-08T13:56:05.408Z,99814.27
2022-12-08T13:57:33.992Z,99811.63
2022-12-08T14:00:15.982Z,99810.50
2022-12-08T14:02:50.777Z,99821.87
2022-12-08T14:05:40.788Z,99827.04
2022-12-08T14:12:05.320Z,99824.82
2022-12-08T14:15:02.616Z,99820.98
2022-12-08T14:17:33.948Z,99820.20
2022-12-08T14:20:13.174Z,99820.66
2022-12-08T14:22:42.157Z,99811.75
2022-12-08T14:25:17.749Z,99823.73
2022-12-08T14:27:48.191Z,99817.27
2022-12-08T14:30:26.390Z,99817.48
2022-12-08T14:32:58.925Z,99813.88
2022-12-08T14:35:30.474Z,99817.62
2022-12-08T14:38:03.789Z,99815.47
2022-12-08T14:40:41.864Z,99812.42
2022-12-08T14:43:10.352Z,99813.58
2022-12-08T14:45:41.822Z,99810.69
2022-12-08T14:48:33.805Z,99811.52
2022-12-08T14:51:09.526Z,99814.60
2022-12-08T14:54:01.740Z,99815.02
2022-12-08T14:56:53.033Z,99804.41
2022-12-08T14:59:40.346Z,99809.34
2022-12-08T15:02:32.269Z,99803.81
2022-12-08T15:05:12.186Z,99804.81
2022-12-08T15:07:53.803Z,99801.29
2022-12-08T15:10:32.316Z,99803.23
2022-12-08T15:13:10.824Z,99806.25
2022-12-08T15:15:57.392Z,99806.81
2022-12-08T15:18:41.234Z,99816.19
2022-12-08T15:21:13.150Z,99814.30
2022-12-08T15:23:49.267Z,99815.10
2022-12-08T15:26:27.297Z,99821.00
2022-12-08T15:28:56.022Z,99826.31
2022-12-08T15:31:24.527Z,99829.15
2022-12-08T15:33:53.076Z,99819.77
2022-12-08T15:36:21.506Z,99813.87
2022-12-08T15:38:49.967Z,99825.33
2022-12-08T15:41:18.448Z,99825.61
2022-12-08T15:43:46.869Z,99818.44
2022-12-08T15:46:15.440Z,99817.55
2022-12-08T15:48:44.018Z,99813.52
2022-12-08T15:51:12.428Z,99813.33
2022-12-08T15:53:41.034Z,99814.32
2022-12-08T15:58:58.916Z,99819.02
2022-12-08T16:01:27.835Z,99817.91
2022-12-08T16:09:44.266Z,99826.98
2022-12-08T16:13:40.420Z,99814.48
2022-12-08T16:18:27.068Z,99819.68
2022-12-08T16:21:09.642Z,99829.91
2022-12-08T16:23:45.469Z,99834.50
2022-12-08T16:27:35.485Z,99838.52
2022-12-08T16:29:18.334Z,99836.82
2022-12-08T16:31:47.351Z,99833.27
2022-12-08T16:34:16.377Z,99839.00
2022-12-08T16:36:44.817Z,99830.91
2022-12-08T16:39:14.118Z,99822.20
2022-12-08T16:42:01.173Z,99815.73
2022-12-08T16:44:29.670Z,99802.12
2022-12-08T16:46:58.153Z,99798.63
2022-12-08T16:49:26.604Z,99799.07
2022-12-08T16:51:55.149Z,99802.28
2022-12-08T16:54:23.645Z,99797.13
2022-12-08T16:56:52.153Z,99799.75
2022-12-08T16:59:20.652Z,99798.36
2022-12-08T17:01:49.098Z,99800.50
2022-12-08T17:04:32.907Z,99810.87
2022-12-08T17:07:01.725Z,99813.92
2022-12-08T17:09:32.208Z,99816.22
2022-12-08T17:12:04.119Z,99811.32
2022-12-08T17:14:35.661Z,99814.74
2022-12-08T17:17:04.516Z,99817.10
2022-12-08T17:19:34.147Z,99809.98
2022-12-08T17:22:02.689Z,99819.02
2022-12-08T17:24:31.897Z,99802.03
2022-12-08T17:27:04.515Z,99806.69
2022-12-08T17:29:34.692Z,99808.88
2022-12-08T17:32:03.775Z,99807.71
2022-12-08T17:34:32.526Z,99809.38
2022-12-08T17:37:00.948Z,99805.27
2022-12-08T17:39:29.442Z,99807.94
2022-12-08T17:41:58.055Z,99814.45
2022-12-08T17:44:27.998Z,99815.98
2022-12-08T17:46:56.710Z,99821.16
2022-12-08T17:49:29.840Z,99816.66
2022-12-08T17:52:01.366Z,99819.60
2022-12-08T17:54:30.865Z,99815.14
2022-12-08T17:56:59.696Z,99813.38
2022-12-08T17:59:29.000Z,99812.66
2022-12-08T18:01:58.313Z,99810.98
2022-12-08T18:04:28.982Z,99805.05
2022-12-08T18:07:00.628Z,99810.00
2022-12-08T18:09:31.810Z,99813.95
2022-12-08T18:12:00.760Z,99816.99
2022-12-08T18:14:29.518Z,99804.20
2022-12-08T18:16:58.133Z,99799.64
2022-12-08T18:19:28.035Z,99796.42
2022-12-08T18:21:56.502Z,99796.39
2022-12-08T18:24:25.220Z,99794.55
2022-12-08T18:26:55.542Z,99791.81
2022-12-08T18:29:24.742Z,99787.12
2022-12-08T18:31:53.243Z,99785.66
2022-12-08T18:34:21.973Z,99793.77
2022-12-08T18:36:50.554Z,99798.89
2022-12-08T18:39:28.852Z,99804.80
2022-12-08T18:41:58.986Z,99798.37
2022-12-08T18:44:27.811Z,99793.95
2022-12-08T18:46:56.362Z,99794.58
2022-12-08T18:49:25.215Z,99788.41
2022-12-08T18:51:53.695Z,99791.45
2022-12-08T18:54:31.585Z,99793.06
2022-12-08T18:57:10.869Z,99795.40
2022-12-08T18:59:39.385Z,99802.98
2022-12-08T19:02:07.999Z,99805.39
2022-12-08T19:04:38.880Z,99800.95
2022-12-08T19:07:08.198Z,99795.02
2022-12-08T19:09:37.190Z,99793.96
2022-12-08T19:12:06.837Z,99804.39
2022-12-08T19:14:35.446Z,99806.50
2022-12-08T19:17:04.031Z,99794.79
2022-12-08T19:19:32.691Z,99790.84
2022-12-08T19:22:01.301Z,99787.96
2022-12-08T19:24:30.088Z,99780.52
2022-12-08T19:26:58.670Z,99787.60
2022-12-08T19:29:27.284Z,99779.48
2022-12-08T19:31:55.939Z,99788.69
2022-12-08T19:34:24.729Z,99790.00
2022-12-08T19:36:53.525Z,99792.39
2022-12-08T19:39:47.353Z,99801.98
2022-12-08T19:42:38.162Z,99795.91
2022-12-08T19:45:21.344Z,99786.95
2022-12-08T19:47:49.940Z,99802.77
2022-12-08T19:50:36.753Z,99796.36
2022-12-08T19:53:12.559Z,99781.90
2022-12-08T19:55:43.196Z,99781.28
2022-12-08T19:58:11.734Z,99787.23
2022-12-08T20:00:41.640Z,99787.54
2022-12-08T20:03:15.734Z,99788.51
2022-12-08T20:05:45.957Z,99779.20
2022-12-08T20:08:15.532Z,99771.30
2022-12-08T20:10:44.544Z,99768.56
2022-12-08T20:13:32.258Z,99764.98
2022-12-08T20:16:00.901Z,99762.27
2022-12-08T20:18:29.649Z,99755.88
2022-12-08T20:20:58.294Z,99750.79
2022-12-08T20:23:26.823Z,99746.05
2022-12-08T20:25:55.279Z,99743.75
2022-12-08T20:28:24.126Z,99739.56
2022-12-08T20:30:52.904Z,99739.48
2022-12-08T20:33:22.173Z,99736.15
2022-12-08T20:36:02.093Z,99731.60
2022-12-08T20:38:31.103Z,99729.66
2022-12-08T20:40:59.905Z,99724.02
2022-12-08T20:43:28.373Z,99722.68
2022-12-08T20:45:56.954Z,99724.38
2022-12-08T20:48:25.914Z,99724.77
2022-12-08T20:50:55.095Z,99727.52
2022-12-08T20:53:23.737Z,99727.25
2022-12-08T20:55:52.721Z,99727.95
2022-12-08T20:58:21.517Z,99738.17
2022-12-08T21:00:50.498Z,99735.76
2022-12-08T21:03:19.488Z,99725.85
2022-12-08T21:05:53.217Z,99723.34
2022-12-08T21:08:25.409Z,99726.90
2022-12-08T21:10:57.034Z,99719.25
2022-12-08T21:13:25.927Z,99713.86
2022-12-08T21:15:54.932Z,99704.20
2022-12-08T21:18:24.794Z,99706.46
2022-12-08T21:21:04.897Z,99701.22
2022-12-08T21:23:35.104Z,99696.86
2022-12-08T21:26:10.473Z,99687.11
2022-12-08T21:28:39.460Z,99692.61
2022-12-08T21:31:13.920Z,99701.02
2022-12-08T21:33:43.087Z,99699.91
2022-12-08T21:36:18.686Z,99697.05
2022-12-08T21:38:47.977Z,99688.35
2022-12-08T21:41:38.665Z,99684.92
2022-12-08T21:44:11.107Z,99668.13
2022-12-08T21:46:40.132Z,99666.84
2022-12-08T21:49:08.963Z,99674.11
2022-12-08T21:51:38.316Z,99678.06
2022-12-08T21:54:07.032Z,99677.66
2022-12-08T21:56:35.845Z,99675.33
2022-12-08T21:59:04.648Z,99678.47
2022-12-08T22:01:33.623Z,99674.98
2022-12-08T22:04:02.614Z,99679.54
2022-12-08T22:06:31.306Z,99681.09
2022-12-08T22:09:00.224Z,99670.02
2022-12-08T22:11:28.968Z,99682.95
2022-12-08T22:13:57.667Z,99671.99
2022-12-08T22:16:26.346Z,99665.70
2022-12-08T22:18:55.135Z,99653.86
2022-12-08T22:21:23.936Z,99648.38
2022-12-08T22:23:52.358Z,99641.21
2022-12-08T22:26:20.834Z,99638.56
2022-12-08T22:28:49.410Z,99644.70
2022-12-08T22:31:23.504Z,99639.75
2022-12-08T22:33:52.375Z,99633.13
2022-12-08T22:36:24.595Z,99629.77
2022-12-08T22:38:54.170Z,99628.06
2022-12-08T22:41:23.289Z,99631.54
2022-12-08T22:43:51.769Z,99621.09
2022-12-08T22:46:26.578Z,99625.31
2022-12-08T22:48:55.336Z,99627.78
2022-12-08T22:51:24.155Z,99630.98
2022-12-08T22:53:52.512Z,99623.67
2022-12-08T22:56:21.028Z,99619.05
2022-12-08T22:58:49.704Z,99617.94
2022-12-08T23:01:27.844Z,99612.11
2022-12-08T23:03:57.953Z,99612.55
2022-12-08T23:06:28.589Z,99608.71
2022-12-08T23:08:57.970Z,99608.61
2022-12-08T23:11:31.533Z,99608.10
2022-12-08T23:14:01.263Z,99606.55
2022-12-08T23:16:30.439Z,99605.73
2022-12-08T23:18:59.674Z,99600.69
2022-12-08T23:21:28.336Z,99597.91
2022-12-08T23:23:57.238Z,99600.21
2022-12-08T23:26:29.099Z,99602.29
2022-12-08T23:28:58.995Z,99608.39
2022-12-08T23:31:28.195Z,99612.71
2022-12-08T23:33:57.055Z,99616.56
2022-12-08T23:36:26.881Z,99615.22
2022-12-08T23:38:55.934Z,99618.41
2022-12-08T23:41:24.497Z,99616.53
2022-12-08T23:43:53.295Z,99614.52
2022-12-08T23:46:23.612Z,99613.91
2022-12-08T23:48:52.278Z,99618.79
2022-12-08T23:51:20.853Z,99621.83
2022-12-08T23:53:49.507Z,99616.57
2022-12-08T23:56:19.317Z,99617.34
2022-12-08T23:58:47.933Z,99606.73
